Lansingburg, New York
Current Conditions -  °F | °C
As of 10:30 AM on Monday 24 Nov 2014 (Local Time) from KALB Reporting Station
Overcast Overcast  
Wind Chill: 63°   Ceiling: 1000
Heat Index: 63°   Visibility: 10mi
Dew Point: 58°   Wind: 15mph
Humidity: 84%   Direction: 160°SSE
Pressure: 29.58"   Gusts: 25mph
Location:  42.8029°N, 73.6379°W
Report Text: KALB 241530Z 16013G22KT 10SM BKN010 BKN037 OVC065 17/14 A2958 RMK AO2 BKN010 V SCT T01720144
Loading
Personal Weather Stations






























Interactive Weather Map New forecast layout! Learn more

10-Day Weather Forecast

Advertisements
Track Severe Weather on mobile